createdAt,value
2022-11-10T00:00:55.933Z,2.28
2022-11-10T00:05:57.433Z,2.45
2022-11-10T00:10:58.871Z,2.03
2022-11-10T00:16:24.470Z,2.13
2022-11-10T00:21:25.729Z,2.03
2022-11-10T00:26:27.046Z,2.53
2022-11-10T00:31:28.397Z,2.72
2022-11-10T00:36:30.301Z,2.40
2022-11-10T00:41:32.098Z,2.30
2022-11-10T00:46:33.428Z,2.42
2022-11-10T00:51:34.765Z,2.58
2022-11-10T00:56:36.063Z,2.75
2022-11-10T01:01:37.406Z,2.35
2022-11-10T01:06:39.075Z,1.98
2022-11-10T01:11:40.426Z,2.17
2022-11-10T01:16:41.734Z,2.28
2022-11-10T01:21:43.253Z,2.50
2022-11-10T01:26:44.557Z,2.28
2022-11-10T01:31:45.888Z,2.00
2022-11-10T01:36:47.216Z,2.28
2022-11-10T01:41:48.602Z,2.20
2022-11-10T01:46:49.872Z,2.40
2022-11-10T01:52:00.534Z,2.17
2022-11-10T01:57:07.716Z,1.92
2022-11-10T02:02:28.369Z,2.40
2022-11-10T02:07:31.732Z,2.38
2022-11-10T02:12:39.172Z,2.45
2022-11-10T02:17:41.784Z,2.03
2022-11-10T02:22:43.061Z,2.00
2022-11-10T02:27:44.444Z,2.75
2022-11-10T02:32:46.036Z,2.25
2022-11-10T02:37:47.352Z,2.55
2022-11-10T02:42:48.788Z,2.53
2022-11-10T02:47:50.283Z,2.30
2022-11-10T02:52:51.665Z,2.38
2022-11-10T02:57:53.097Z,2.10
2022-11-10T03:02:58.290Z,2.67
2022-11-10T03:08:02.276Z,2.60
2022-11-10T03:13:03.722Z,2.28
2022-11-10T03:18:05.244Z,2.10
2022-11-10T03:23:07.141Z,2.05
2022-11-10T03:28:08.920Z,2.10
2022-11-10T03:33:10.161Z,2.25
2022-11-10T03:38:11.471Z,2.08
2022-11-10T03:43:12.711Z,3.03
2022-11-10T03:48:13.975Z,2.95
2022-11-10T03:53:15.215Z,2.50
2022-11-10T03:58:16.497Z,2.75
2022-11-10T04:03:17.767Z,2.67
2022-11-10T04:08:37.735Z,2.72
2022-11-10T04:13:57.513Z,2.45
2022-11-10T04:18:58.761Z,1.83
2022-11-10T04:24:00.048Z,2.70
2022-11-10T04:29:03.576Z,2.95
2022-11-10T04:34:10.678Z,2.42
2022-11-10T04:39:12.129Z,2.45
2022-11-10T04:44:13.453Z,2.95
2022-11-10T04:49:14.811Z,2.58
2022-11-10T04:54:16.191Z,2.60
2022-11-10T04:59:17.442Z,2.67
2022-11-10T05:04:18.747Z,2.58
2022-11-10T05:09:20.123Z,3.10
2022-11-10T05:14:21.428Z,2.70
2022-11-10T05:19:22.728Z,3.42
2022-11-10T05:24:23.975Z,2.70
2022-11-10T05:29:25.245Z,3.90
2022-11-10T05:34:26.616Z,3.85
2022-11-10T05:39:27.987Z,3.00
2022-11-10T05:44:29.255Z,2.85
2022-11-10T05:49:30.603Z,2.88
2022-11-10T05:54:31.983Z,4.40
2022-11-10T05:59:33.326Z,3.55
2022-11-10T06:04:34.620Z,3.72
2022-11-10T06:09:36.456Z,5.82
2022-11-10T06:14:37.791Z,4.50
2022-11-10T06:19:39.086Z,5.22
2022-11-10T06:24:40.389Z,5.07
2022-11-10T06:29:41.849Z,5.13
2022-11-10T06:34:43.783Z,6.10
2022-11-10T06:39:46.388Z,4.88
2022-11-10T06:44:47.689Z,5.80
2022-11-10T06:49:48.959Z,5.93
2022-11-10T06:54:50.325Z,5.45
2022-11-10T06:59:51.657Z,6.25
2022-11-10T07:04:52.948Z,6.13
2022-11-10T07:09:55.309Z,6.03
2022-11-10T07:14:56.603Z,6.85
2022-11-10T07:19:57.940Z,6.80
2022-11-10T07:24:59.248Z,7.93
2022-11-10T07:30:00.536Z,5.93
2022-11-10T07:35:01.792Z,5.78
2022-11-10T07:40:03.850Z,5.68
2022-11-10T07:45:05.726Z,7.45
2022-11-10T07:50:07.690Z,5.88
2022-11-10T07:55:09.308Z,6.70
2022-11-10T08:00:12.588Z,6.35
2022-11-10T08:05:13.978Z,6.13
2022-11-10T08:10:15.499Z,5.70
2022-11-10T08:15:16.915Z,5.15
2022-11-10T08:20:18.664Z,5.75
2022-11-10T08:25:20.003Z,6.22
2022-11-10T08:30:21.370Z,5.80
2022-11-10T08:35:24.864Z,5.13
2022-11-10T08:40:27.659Z,5.43
2022-11-10T08:45:29.335Z,5.03
2022-11-10T08:50:31.305Z,5.78
2022-11-10T08:55:32.737Z,4.53
2022-11-10T09:00:34.752Z,5.15
2022-11-10T09:05:37.279Z,4.28
2022-11-10T09:10:41.502Z,4.32
2022-11-10T09:15:43.563Z,4.20
2022-11-10T09:20:44.897Z,4.25
2022-11-10T09:25:52.142Z,4.55
2022-11-10T09:30:53.696Z,4.05
2022-11-10T09:35:59.550Z,5.03
2022-11-10T09:41:04.316Z,3.78
2022-11-10T09:46:16.032Z,3.80
2022-11-10T09:51:30.791Z,3.15
2022-11-10T09:56:34.882Z,3.38
2022-11-10T10:01:50.162Z,4.18
2022-11-10T10:07:11.960Z,3.35
2022-11-10T10:12:45.885Z,2.97
2022-11-10T10:17:59.089Z,3.42
2022-11-10T10:23:17.738Z,3.40
2022-11-10T10:28:19.207Z,4.13
2022-11-10T10:33:22.157Z,3.80
2022-11-10T10:38:32.526Z,3.17
2022-11-10T10:43:33.927Z,3.10
2022-11-10T10:48:36.322Z,3.63
2022-11-10T10:53:48.025Z,3.03
2022-11-10T10:58:55.472Z,3.10
2022-11-10T11:03:57.705Z,3.58
2022-11-10T11:09:23.220Z,3.20
2022-11-10T11:14:27.499Z,2.85
2022-11-10T11:19:35.092Z,2.95
2022-11-10T11:24:53.239Z,2.72
2022-11-10T11:30:09.415Z,2.60
2022-11-10T11:35:26.660Z,3.28
2022-11-10T11:40:41.881Z,2.33
2022-11-10T11:45:59.259Z,2.30
2022-11-10T11:51:12.187Z,2.20
2022-11-10T11:56:40.975Z,2.20
2022-11-10T12:02:04.087Z,2.20
2022-11-10T12:07:36.258Z,2.67
2022-11-10T12:13:07.131Z,2.17
2022-11-10T12:18:17.541Z,1.83
2022-11-10T12:23:41.005Z,1.60
2022-11-10T12:28:55.036Z,1.92
2022-11-10T12:34:05.979Z,2.17
2022-11-10T12:39:46.562Z,2.13
2022-11-10T12:45:17.241Z,2.10
2022-11-10T12:50:44.562Z,2.25
2022-11-10T12:56:00.395Z,2.17
2022-11-10T13:01:05.155Z,1.80
2022-11-10T13:06:24.382Z,1.98
2022-11-10T13:11:34.125Z,1.58
2022-11-10T13:16:41.757Z,1.52
2022-11-10T13:21:52.275Z,1.80
2022-11-10T13:26:55.215Z,1.65
2022-11-10T13:32:17.881Z,1.77
2022-11-10T13:37:34.632Z,2.00
2022-11-10T13:42:36.239Z,1.50
2022-11-10T13:47:41.680Z,1.75
2022-11-10T13:53:01.579Z,1.63
2022-11-10T13:58:06.021Z,2.03
2022-11-10T14:03:07.990Z,2.00
2022-11-10T14:08:09.255Z,2.38
2022-11-10T14:13:41.648Z,2.40
2022-11-10T14:18:49.042Z,2.50
2022-11-10T14:24:05.062Z,2.55
2022-11-10T14:29:38.185Z,2.50
2022-11-10T14:34:49.397Z,2.28
2022-11-10T14:39:54.524Z,2.35
2022-11-10T14:45:07.664Z,2.92
2022-11-10T14:55:20.703Z,2.53
2022-11-10T15:00:26.152Z,2.72
2022-11-10T15:05:29.928Z,2.90
2022-11-10T15:10:40.441Z,2.55
2022-11-10T15:15:42.004Z,3.08
2022-11-10T15:20:45.051Z,2.38
2022-11-10T15:25:52.835Z,2.70
2022-11-10T15:30:58.310Z,2.60
2022-11-10T15:36:27.886Z,3.13
2022-11-10T15:41:32.628Z,3.50
2022-11-10T15:46:33.943Z,4.00
2022-11-10T15:51:35.273Z,3.75
2022-11-10T15:56:36.654Z,3.63
2022-11-10T16:01:38.401Z,3.92
2022-11-10T16:06:40.150Z,4.32
2022-11-10T16:11:44.561Z,4.32
2022-11-10T16:16:45.901Z,3.47
2022-11-10T16:21:47.181Z,3.65
2022-11-10T16:26:48.585Z,3.58
2022-11-10T16:31:50.583Z,3.30
2022-11-10T16:36:51.949Z,3.88
2022-11-10T16:41:53.477Z,3.78
2022-11-10T16:46:58.714Z,3.75
2022-11-10T16:52:08.064Z,3.90
2022-11-10T16:57:14.141Z,4.15
2022-11-10T17:02:30.761Z,3.75
2022-11-10T17:07:33.588Z,4.95
2022-11-10T17:12:34.992Z,4.28
2022-11-10T17:17:36.715Z,3.90
2022-11-10T17:22:38.231Z,3.85
2022-11-10T17:27:39.585Z,4.82
2022-11-10T17:33:03.733Z,4.07
2022-11-10T17:38:02.182Z,4.47
2022-11-10T17:43:03.724Z,4.15
2022-11-10T17:48:05.528Z,4.07
2022-11-10T17:53:22.218Z,4.30
2022-11-10T17:58:23.799Z,4.18
2022-11-10T18:03:25.293Z,4.97
2022-11-10T18:08:26.793Z,4.50
2022-11-10T18:13:28.063Z,5.10
2022-11-10T18:18:29.386Z,5.70
2022-11-10T18:23:30.922Z,6.18
2022-11-10T18:28:33.383Z,6.68
2022-11-10T18:33:35.023Z,5.50
2022-11-10T18:38:36.418Z,6.47
2022-11-10T18:43:37.764Z,5.45
2022-11-10T18:48:39.180Z,6.40
2022-11-10T18:53:40.626Z,6.13
2022-11-10T18:58:42.657Z,7.13
2022-11-10T19:03:44.988Z,7.15
2022-11-10T19:08:46.487Z,8.95
2022-11-10T19:13:48.241Z,7.45
2022-11-10T19:18:49.689Z,7.95
2022-11-10T19:23:54.947Z,15.77
2022-11-10T19:28:56.717Z,9.02
2022-11-10T19:33:58.283Z,16.10
2022-11-10T19:38:59.637Z,8.02
2022-11-10T19:44:00.974Z,11.38
2022-11-10T19:49:04.229Z,9.80
2022-11-10T19:54:05.856Z,15.45
2022-11-10T19:59:08.049Z,8.93
2022-11-10T20:04:09.870Z,6.10
2022-11-10T20:09:11.182Z,7.95
2022-11-10T20:14:12.457Z,8.55
2022-11-10T20:19:13.860Z,7.45
2022-11-10T20:24:15.176Z,6.68
2022-11-10T20:29:16.448Z,6.82
2022-11-10T20:34:17.740Z,7.65
2022-11-10T20:39:19.017Z,7.13
2022-11-10T20:44:20.307Z,6.85
2022-11-10T20:49:21.637Z,7.38
2022-11-10T20:54:22.892Z,7.05
2022-11-10T20:59:24.180Z,8.07
2022-11-10T21:04:25.498Z,7.07
2022-11-10T21:09:27.644Z,7.22
2022-11-10T21:14:28.954Z,7.40
2022-11-10T21:19:34.420Z,6.85
2022-11-10T21:24:35.708Z,7.80
2022-11-10T21:29:37.050Z,7.43
2022-11-10T21:34:38.638Z,8.05
2022-11-10T21:39:40.660Z,8.18
2022-11-10T21:44:41.899Z,7.45
2022-11-10T21:49:43.199Z,7.38
2022-11-10T21:54:44.457Z,9.02
2022-11-10T21:59:45.722Z,8.50
2022-11-10T22:04:46.986Z,8.63
2022-11-10T22:10:06.956Z,7.70
2022-11-10T22:15:32.468Z,7.22
2022-11-10T22:20:33.827Z,8.30
2022-11-10T22:25:35.661Z,8.02
2022-11-10T22:30:37.670Z,7.43
2022-11-10T22:35:45.028Z,8.48
2022-11-10T22:41:05.131Z,7.63
2022-11-10T22:46:06.383Z,7.55
2022-11-10T22:51:07.627Z,8.93
2022-11-10T22:56:09.134Z,8.18
2022-11-10T23:01:11.416Z,7.53
2022-11-10T23:06:12.901Z,7.43
2022-11-10T23:11:20.310Z,7.90
2022-11-10T23:16:27.153Z,8.55
2022-11-10T23:21:30.342Z,8.13
2022-11-10T23:26:33.773Z,7.38
2022-11-10T23:31:35.155Z,7.95
2022-11-10T23:36:36.415Z,7.22
2022-11-10T23:41:37.682Z,7.28
2022-11-10T23:46:38.943Z,6.68
2022-11-10T23:51:40.215Z,6.93
2022-11-10T23:56:41.618Z,7.40
